Terminal Aerodrome Forecast
Issued by NWS Louisville, KY

Home | Current Version | Previous Version | Text Only | Print | Product List | Glossary On
Versions: 1 2 3 4 5 6 7 8 9 10 11 12 13 14 15 16 17 18 19 20 21 22 23
000
FTUS43 KLMK 310000 AAA
TAFBWG
TAF AMD
KBWG 310013Z 3100/3124 22004KT P6SM -RA VCTS OVC040CB
     FM310100 20005KT 5SM SHRA BR VCTS OVC035CB
      TEMPO 3101/3105 1SM -TSRA BR BKN015CB
     FM311140 21009KT P6SM VCTS BKN040CB=

USA.gov is the U.S. government's official web portal to all federal, state and local government web resources and services.